createdAt,value
2023-05-11T00:00:44.325Z,2.90
2023-05-11T00:03:11.317Z,3.00
2023-05-11T00:05:38.457Z,2.90
2023-05-11T00:08:05.401Z,3.13
2023-05-11T00:10:32.272Z,2.97
2023-05-11T00:12:59.161Z,3.97
2023-05-11T00:15:26.132Z,3.77
2023-05-11T00:17:53.007Z,3.20
2023-05-11T00:20:21.530Z,2.90
2023-05-11T00:22:48.363Z,3.10
2023-05-11T00:25:15.239Z,3.17
2023-05-11T00:27:45.885Z,3.27
2023-05-11T00:30:14.847Z,2.60
2023-05-11T00:32:42.658Z,4.80
2023-05-11T00:35:11.169Z,2.43
2023-05-11T00:37:38.826Z,3.93
2023-05-11T00:40:06.386Z,3.47
2023-05-11T00:42:33.459Z,3.17
2023-05-11T00:45:00.223Z,4.27
2023-05-11T00:47:27.080Z,3.10
2023-05-11T00:49:54.000Z,3.57
2023-05-11T00:52:21.982Z,2.83
2023-05-11T00:54:48.906Z,3.10
2023-05-11T00:57:15.807Z,2.70
2023-05-11T00:59:42.701Z,2.80
2023-05-11T01:02:09.637Z,3.67
2023-05-11T01:04:36.492Z,2.83
2023-05-11T01:07:12.994Z,2.73
2023-05-11T01:09:46.971Z,2.60
2023-05-11T01:12:19.916Z,3.40
2023-05-11T01:15:11.784Z,2.80
2023-05-11T01:17:58.930Z,3.30
2023-05-11T01:20:27.881Z,1.60
2023-05-11T01:23:14.550Z,1.90
2023-05-11T01:25:56.602Z,2.13
2023-05-11T01:28:38.582Z,3.80
2023-05-11T01:31:11.843Z,2.00
2023-05-11T01:33:43.605Z,3.37
2023-05-11T01:36:11.288Z,2.30
2023-05-11T01:38:40.925Z,2.00
2023-05-11T01:41:13.985Z,1.80
2023-05-11T01:43:40.969Z,1.80
2023-05-11T01:46:08.497Z,1.97
2023-05-11T01:48:38.463Z,2.23
2023-05-11T01:51:05.222Z,2.37
2023-05-11T01:53:34.449Z,2.20
2023-05-11T01:56:01.927Z,2.23
2023-05-11T01:58:29.506Z,2.90
2023-05-11T02:00:56.443Z,3.10
2023-05-11T02:03:23.340Z,3.73
2023-05-11T02:05:50.130Z,2.20
2023-05-11T02:08:17.389Z,2.83
2023-05-11T02:10:44.182Z,2.63
2023-05-11T02:13:11.202Z,2.40
2023-05-11T02:15:38.737Z,2.73
2023-05-11T02:18:06.498Z,2.83
2023-05-11T02:20:33.399Z,2.50
2023-05-11T02:23:00.759Z,2.67
2023-05-11T02:25:27.894Z,2.63
2023-05-11T02:27:54.747Z,3.60
2023-05-11T02:30:21.688Z,3.00
2023-05-11T02:32:53.123Z,3.23
2023-05-11T02:35:25.048Z,2.83
2023-05-11T02:37:52.222Z,3.30
2023-05-11T02:40:21.105Z,3.10
2023-05-11T02:42:49.733Z,3.40
2023-05-11T02:45:16.908Z,4.17
2023-05-11T02:47:47.389Z,3.70
2023-05-11T02:50:14.709Z,3.77
2023-05-11T02:52:43.396Z,3.10
2023-05-11T02:55:10.915Z,3.20
2023-05-11T02:57:38.527Z,3.10
2023-05-11T03:00:06.277Z,4.20
2023-05-11T03:02:33.512Z,3.03
2023-05-11T03:05:00.738Z,3.63
2023-05-11T03:07:27.592Z,3.07
2023-05-11T03:09:54.335Z,3.27
2023-05-11T03:12:21.348Z,3.47
2023-05-11T03:14:48.131Z,3.00
2023-05-11T03:17:15.409Z,3.60
2023-05-11T03:19:42.380Z,4.37
2023-05-11T03:22:09.843Z,4.20
2023-05-11T03:24:36.968Z,3.53
2023-05-11T03:27:04.219Z,3.70
2023-05-11T03:29:31.537Z,4.33
2023-05-11T03:31:58.618Z,3.80
2023-05-11T03:34:28.327Z,3.43
2023-05-11T03:36:55.726Z,4.10
2023-05-11T03:39:23.191Z,3.53
2023-05-11T03:41:50.828Z,3.47
2023-05-11T03:44:19.723Z,3.63
2023-05-11T03:46:46.540Z,3.17
2023-05-11T03:49:14.032Z,4.37
2023-05-11T03:51:41.442Z,3.37
2023-05-11T03:54:08.600Z,4.23
2023-05-11T03:56:39.077Z,3.87
2023-05-11T03:59:05.949Z,4.00
2023-05-11T04:01:33.226Z,3.70
2023-05-11T04:04:00.333Z,3.70
2023-05-11T04:06:27.235Z,4.03
2023-05-11T04:08:54.642Z,3.77
2023-05-11T04:11:22.430Z,3.67
2023-05-11T04:13:49.254Z,4.67
2023-05-11T04:16:16.162Z,4.10
2023-05-11T04:18:43.855Z,3.87
2023-05-11T04:21:11.276Z,4.83
2023-05-11T04:23:38.814Z,4.23
2023-05-11T04:26:06.140Z,4.00
2023-05-11T04:28:33.403Z,4.90
2023-05-11T04:31:00.843Z,4.33
2023-05-11T04:33:27.650Z,4.50
2023-05-11T04:35:55.286Z,4.67
2023-05-11T04:38:22.607Z,4.10
2023-05-11T04:40:50.641Z,4.50
2023-05-11T04:43:18.562Z,4.70
2023-05-11T04:45:49.392Z,4.60
2023-05-11T04:48:19.590Z,3.97
2023-05-11T04:50:48.046Z,4.63
2023-05-11T04:53:15.526Z,4.13
2023-05-11T04:55:45.400Z,5.17
2023-05-11T04:58:12.782Z,4.90
2023-05-11T05:00:40.010Z,4.50
2023-05-11T05:03:07.449Z,5.60
2023-05-11T05:05:34.804Z,4.67
2023-05-11T05:08:02.013Z,4.10
2023-05-11T05:10:29.259Z,4.93
2023-05-11T05:12:56.531Z,5.00
2023-05-11T05:15:24.101Z,5.30
2023-05-11T05:17:51.702Z,5.87
2023-05-11T05:20:19.298Z,6.10
2023-05-11T05:22:46.980Z,5.47
2023-05-11T05:25:14.099Z,6.10
2023-05-11T05:27:41.311Z,5.00
2023-05-11T05:30:09.053Z,4.70
2023-05-11T05:32:36.174Z,4.77
2023-05-11T05:35:03.408Z,5.10
2023-05-11T05:37:30.787Z,5.43
2023-05-11T05:39:58.092Z,4.83
2023-05-11T05:42:24.921Z,5.57
2023-05-11T05:44:52.344Z,5.00
2023-05-11T05:47:21.795Z,5.63
2023-05-11T05:49:49.163Z,4.87
2023-05-11T05:52:16.445Z,5.57
2023-05-11T05:54:43.604Z,7.20
2023-05-11T05:57:11.868Z,5.10
2023-05-11T05:59:39.474Z,5.40
2023-05-11T06:02:06.826Z,5.70
2023-05-11T06:04:33.798Z,5.57
2023-05-11T06:07:00.962Z,5.03
2023-05-11T06:09:27.724Z,7.37
2023-05-11T06:11:54.985Z,5.27
2023-05-11T06:14:25.961Z,4.80
2023-05-11T06:16:54.062Z,5.30
2023-05-11T06:19:21.569Z,5.60
2023-05-11T06:21:48.678Z,8.83
2023-05-11T06:24:15.850Z,5.50
2023-05-11T06:26:42.736Z,5.90
2023-05-11T06:29:09.488Z,6.73
2023-05-11T06:31:37.139Z,4.60
2023-05-11T06:34:09.322Z,4.13
2023-05-11T06:36:36.844Z,4.50
2023-05-11T06:39:04.909Z,5.37
2023-05-11T06:41:31.685Z,4.40
2023-05-11T06:43:58.468Z,5.53
2023-05-11T06:46:26.071Z,5.90
2023-05-11T06:48:52.901Z,4.60
2023-05-11T06:53:53.841Z,5.53
2023-05-11T06:56:22.136Z,4.33
2023-05-11T06:58:49.430Z,4.20
2023-05-11T07:01:17.028Z,4.50
2023-05-11T07:03:44.246Z,4.60
2023-05-11T07:06:11.559Z,4.70
2023-05-11T07:08:38.685Z,4.13
2023-05-11T07:11:06.207Z,4.80
2023-05-11T07:13:35.119Z,4.10
2023-05-11T07:16:05.149Z,4.20
2023-05-11T07:18:32.123Z,4.33
2023-05-11T07:21:02.030Z,4.30
2023-05-11T07:23:29.752Z,4.00
2023-05-11T07:25:58.257Z,3.40
2023-05-11T07:28:25.595Z,3.33
2023-05-11T07:30:52.888Z,3.57
2023-05-11T07:33:20.129Z,3.10
2023-05-11T07:35:47.139Z,3.67
2023-05-11T07:38:13.910Z,3.90
2023-05-11T07:40:41.078Z,3.20
2023-05-11T07:43:07.798Z,3.20
2023-05-11T07:45:35.711Z,3.27
2023-05-11T07:48:02.576Z,3.07
2023-05-11T07:50:29.794Z,2.57
2023-05-11T07:52:59.633Z,6.07
2023-05-11T07:55:26.787Z,3.00
2023-05-11T07:57:54.510Z,2.33
2023-05-11T08:00:22.000Z,2.47
2023-05-11T08:02:49.498Z,2.50
2023-05-11T08:05:17.561Z,2.73
2023-05-11T08:07:44.533Z,3.20
2023-05-11T08:10:11.955Z,3.83
2023-05-11T08:12:38.929Z,2.77
2023-05-11T08:15:06.100Z,3.13
2023-05-11T08:17:32.937Z,1.97
2023-05-11T08:20:00.243Z,2.40
2023-05-11T08:22:27.979Z,2.27
2023-05-11T08:24:55.058Z,2.33
2023-05-11T08:27:22.034Z,2.30
2023-05-11T08:29:49.020Z,3.83
2023-05-11T08:32:15.987Z,2.90
2023-05-11T08:34:43.136Z,2.13
2023-05-11T08:37:11.108Z,2.30
2023-05-11T08:39:48.045Z,2.87
2023-05-11T08:42:18.004Z,4.93
2023-05-11T08:44:54.137Z,2.30
2023-05-11T08:47:23.790Z,2.73
2023-05-11T08:49:53.115Z,2.43
2023-05-11T08:52:20.495Z,5.80
2023-05-11T08:54:48.276Z,2.13
2023-05-11T08:57:16.327Z,3.23
2023-05-11T08:59:49.836Z,2.60
2023-05-11T09:02:25.828Z,4.13
2023-05-11T09:04:53.160Z,3.10
2023-05-11T09:07:21.413Z,3.00
2023-05-11T09:09:53.354Z,2.40
2023-05-11T09:12:25.221Z,2.40
2023-05-11T09:15:02.047Z,2.30
2023-05-11T09:17:36.246Z,2.97
2023-05-11T09:20:10.725Z,2.57
2023-05-11T09:22:49.046Z,2.83
2023-05-11T09:25:18.500Z,2.30
2023-05-11T09:27:57.379Z,2.03
2023-05-11T09:30:25.414Z,1.60
2023-05-11T09:32:56.052Z,1.63
2023-05-11T09:35:33.482Z,1.37
2023-05-11T09:38:07.847Z,1.87
2023-05-11T09:40:40.091Z,2.50
2023-05-11T09:43:28.132Z,1.93
2023-05-11T09:45:58.561Z,2.53
2023-05-11T09:48:30.527Z,2.03
2023-05-11T09:51:06.511Z,1.10
2023-05-11T09:53:46.044Z,0.83
2023-05-11T09:56:14.152Z,1.00
2023-05-11T09:58:47.991Z,1.30
2023-05-11T10:01:15.742Z,1.47
2023-05-11T10:03:56.389Z,1.57
2023-05-11T10:06:51.988Z,4.80
2023-05-11T10:09:20.197Z,4.63
2023-05-11T10:11:47.232Z,2.13
2023-05-11T10:14:14.378Z,1.70
2023-05-11T10:16:44.611Z,1.70
2023-05-11T10:19:12.229Z,1.23
2023-05-11T10:21:39.705Z,1.53
2023-05-11T10:24:07.693Z,1.47
2023-05-11T10:26:34.726Z,1.40
2023-05-11T10:29:01.979Z,3.03
2023-05-11T10:31:31.695Z,1.80
2023-05-11T10:34:00.580Z,1.67
2023-05-11T10:36:28.845Z,2.30
2023-05-11T10:38:56.345Z,3.37
2023-05-11T10:41:31.025Z,1.60
2023-05-11T10:44:08.107Z,1.70
2023-05-11T10:47:05.589Z,1.47
2023-05-11T10:50:00.207Z,1.30
2023-05-11T10:52:56.022Z,1.40
2023-05-11T10:55:33.487Z,1.00
2023-05-11T10:58:15.253Z,1.77
2023-05-11T11:01:16.601Z,2.10
2023-05-11T11:03:58.502Z,1.80
2023-05-11T11:06:26.585Z,1.53
2023-05-11T11:09:14.827Z,1.70
2023-05-11T11:11:46.787Z,1.90
2023-05-11T11:14:17.561Z,1.20
2023-05-11T11:17:20.926Z,2.97
2023-05-11T11:19:48.927Z,1.80
2023-05-11T11:22:35.261Z,1.60
2023-05-11T11:25:06.474Z,1.60
2023-05-11T11:27:45.816Z,1.80
2023-05-11T11:30:16.157Z,1.70
2023-05-11T11:32:46.029Z,1.50
2023-05-11T11:35:45.941Z,1.47
2023-05-11T11:38:15.516Z,1.63
2023-05-11T11:43:14.734Z,1.80
2023-05-11T11:46:08.183Z,1.20
2023-05-11T11:48:39.167Z,1.27
2023-05-11T11:51:10.605Z,1.23
2023-05-11T11:53:37.899Z,1.00
2023-05-11T11:56:05.633Z,2.30
2023-05-11T11:58:41.648Z,1.40
2023-05-11T12:01:12.092Z,1.67
2023-05-11T12:03:40.385Z,4.27
2023-05-11T12:06:14.279Z,3.57
2023-05-11T12:08:42.348Z,4.60
2023-05-11T12:11:10.520Z,6.00
2023-05-11T12:13:37.918Z,7.03
2023-05-11T12:16:13.082Z,3.77
2023-05-11T12:18:54.582Z,5.23
2023-05-11T12:21:27.364Z,2.10
2023-05-11T12:24:02.201Z,3.73
2023-05-11T12:26:34.434Z,5.47
2023-05-11T12:29:16.584Z,2.40
2023-05-11T12:31:47.566Z,3.30
2023-05-11T12:34:22.324Z,3.93
2023-05-11T12:36:53.178Z,2.53
2023-05-11T12:39:28.355Z,2.50
2023-05-11T12:42:01.529Z,1.93
2023-05-11T12:44:30.097Z,1.57
2023-05-11T12:46:58.984Z,1.63
2023-05-11T12:49:32.583Z,1.87
2023-05-11T12:52:27.284Z,1.20
2023-05-11T12:55:10.593Z,1.90
2023-05-11T12:57:43.689Z,1.77
2023-05-11T13:00:15.865Z,3.40
2023-05-11T13:02:54.262Z,1.57
2023-05-11T13:05:32.734Z,1.67
2023-05-11T13:08:02.710Z,1.07
2023-05-11T13:10:38.040Z,1.63
2023-05-11T13:13:07.035Z,1.53
2023-05-11T13:15:35.532Z,1.57
2023-05-11T13:18:04.726Z,1.63
2023-05-11T13:20:38.213Z,1.73
2023-05-11T13:23:10.171Z,1.60
2023-05-11T13:25:46.540Z,1.97
2023-05-11T13:28:19.268Z,2.10
2023-05-11T13:30:53.273Z,2.10
2023-05-11T13:33:25.084Z,1.70
2023-05-11T13:35:52.341Z,1.63
2023-05-11T13:38:20.059Z,2.30
2023-05-11T13:40:49.809Z,5.57
2023-05-11T13:43:17.173Z,1.83
2023-05-11T13:45:45.050Z,2.00
2023-05-11T13:48:14.063Z,2.50
2023-05-11T13:50:41.280Z,1.37
2023-05-11T13:53:13.532Z,2.30
2023-05-11T13:55:45.636Z,1.50
2023-05-11T13:58:14.296Z,1.50
2023-05-11T14:00:56.682Z,1.50
2023-05-11T14:03:35.613Z,1.70
2023-05-11T14:06:04.016Z,1.50
2023-05-11T14:08:32.006Z,1.53
2023-05-11T14:10:59.023Z,1.50
2023-05-11T14:13:30.214Z,1.70
2023-05-11T14:16:01.629Z,1.57
2023-05-11T14:18:30.398Z,1.20
2023-05-11T14:21:03.502Z,1.77
2023-05-11T14:23:31.273Z,1.80
2023-05-11T14:26:00.557Z,1.43
2023-05-11T14:28:41.235Z,2.30
2023-05-11T14:34:00.226Z,1.57
2023-05-11T14:36:48.724Z,1.10
2023-05-11T14:39:16.811Z,1.23
2023-05-11T14:41:47.968Z,2.70
2023-05-11T14:44:19.820Z,1.43
2023-05-11T14:49:48.783Z,0.90
2023-05-11T14:52:26.743Z,1.40
2023-05-11T14:55:11.495Z,1.50
2023-05-11T15:03:43.903Z,2.80
2023-05-11T15:06:42.722Z,2.70
2023-05-11T15:09:16.541Z,1.50
2023-05-11T15:11:47.646Z,2.10
2023-05-11T15:14:22.999Z,2.53
2023-05-11T15:22:16.287Z,1.30
2023-05-11T15:24:49.435Z,1.70
2023-05-11T15:27:16.837Z,1.47
2023-05-11T15:29:44.216Z,1.47
2023-05-11T15:32:14.966Z,2.60
2023-05-11T15:34:55.519Z,1.63
2023-05-11T15:37:26.198Z,1.20
2023-05-11T15:39:56.416Z,0.90
2023-05-11T15:42:23.816Z,0.63
2023-05-11T15:44:51.032Z,0.83
2023-05-11T15:47:18.286Z,0.80
2023-05-11T15:49:45.708Z,0.50
2023-05-11T15:52:13.039Z,1.00
2023-05-11T15:54:40.582Z,0.80
2023-05-11T15:57:07.765Z,0.70
2023-05-11T15:59:37.967Z,1.00
2023-05-11T16:02:06.325Z,0.50
2023-05-11T16:04:33.204Z,0.80
2023-05-11T16:07:00.252Z,0.80
2023-05-11T16:09:28.913Z,0.80
2023-05-11T16:11:56.656Z,0.80
2023-05-11T16:14:24.068Z,1.53
2023-05-11T16:16:51.986Z,1.80
2023-05-11T16:19:19.171Z,2.03
2023-05-11T16:21:46.010Z,1.03
2023-05-11T16:24:12.988Z,1.47
2023-05-11T16:26:40.133Z,2.20
2023-05-11T16:29:07.579Z,1.30
2023-05-11T16:31:37.029Z,1.70
2023-05-11T16:34:04.003Z,3.27
2023-05-11T16:36:31.173Z,3.00
2023-05-11T16:38:58.710Z,1.57
2023-05-11T16:41:28.078Z,2.57
2023-05-11T16:43:56.021Z,1.93
2023-05-11T16:46:22.912Z,1.60
2023-05-11T16:48:50.136Z,0.80
2023-05-11T16:51:16.928Z,1.03
2023-05-11T16:53:45.131Z,1.53
2023-05-11T16:56:13.552Z,1.43
2023-05-11T16:58:40.557Z,1.00
2023-05-11T17:01:07.601Z,1.80
2023-05-11T17:03:35.061Z,0.90
2023-05-11T17:06:01.937Z,0.73
2023-05-11T17:08:29.683Z,1.67
2023-05-11T17:10:56.895Z,1.30
2023-05-11T17:13:23.663Z,1.03
2023-05-11T17:15:58.959Z,0.90
2023-05-11T17:18:26.039Z,1.50
2023-05-11T17:20:54.455Z,1.00
2023-05-11T17:23:21.906Z,0.80
2023-05-11T17:25:49.089Z,1.00
2023-05-11T17:28:16.208Z,1.47
2023-05-11T17:30:48.627Z,1.30
2023-05-11T17:33:16.431Z,1.33
2023-05-11T17:35:43.304Z,1.20
2023-05-11T17:38:10.186Z,1.13
2023-05-11T17:40:37.067Z,1.00
2023-05-11T17:43:03.819Z,1.50
2023-05-11T17:45:30.732Z,1.93
2023-05-11T17:47:59.487Z,2.00
2023-05-11T17:50:26.288Z,1.73
2023-05-11T17:52:53.238Z,1.73
2023-05-11T17:55:20.174Z,1.90
2023-05-11T17:57:48.599Z,1.93
2023-05-11T18:00:16.186Z,2.00
2023-05-11T18:02:43.475Z,1.50
2023-05-11T18:05:10.775Z,1.97
2023-05-11T18:07:37.506Z,1.70
2023-05-11T18:10:04.930Z,1.40
2023-05-11T18:12:32.513Z,1.50
2023-05-11T18:15:00.172Z,1.20
2023-05-11T18:17:27.153Z,0.97
2023-05-11T18:19:53.977Z,1.20
2023-05-11T18:22:22.516Z,1.37
2023-05-11T18:24:49.829Z,1.17
2023-05-11T18:27:17.291Z,1.37
2023-05-11T18:29:45.127Z,1.80
2023-05-11T18:32:15.026Z,1.40
2023-05-11T18:34:42.672Z,1.63
2023-05-11T18:37:10.161Z,1.57
2023-05-11T18:39:37.501Z,1.67
2023-05-11T18:42:08.172Z,1.50
2023-05-11T18:44:35.398Z,1.40
2023-05-11T18:47:02.691Z,1.77
2023-05-11T18:49:30.545Z,1.40
2023-05-11T18:51:58.301Z,2.90
2023-05-11T18:54:25.582Z,1.70
2023-05-11T18:56:53.035Z,1.90
2023-05-11T18:59:20.242Z,3.40
2023-05-11T19:01:48.461Z,2.40
2023-05-11T19:04:19.948Z,2.80
2023-05-11T19:06:47.743Z,3.57
2023-05-11T19:09:14.988Z,3.33
2023-05-11T19:11:42.215Z,3.50
2023-05-11T19:14:10.465Z,3.00
2023-05-11T19:16:37.444Z,3.50
2023-05-11T19:19:04.922Z,3.73
2023-05-11T19:21:33.207Z,3.57
2023-05-11T19:24:00.157Z,3.00
2023-05-11T19:26:27.510Z,2.70
2023-05-11T19:28:54.373Z,2.53
2023-05-11T19:31:22.900Z,2.50
2023-05-11T19:33:49.712Z,2.57
2023-05-11T19:36:16.602Z,2.30
2023-05-11T19:38:43.865Z,2.17
2023-05-11T19:41:10.991Z,2.73
2023-05-11T19:43:37.904Z,2.10
2023-05-11T19:46:04.834Z,2.43
2023-05-11T19:48:31.753Z,2.80
2023-05-11T19:50:59.051Z,2.50
2023-05-11T19:53:28.799Z,2.63
2023-05-11T19:55:55.584Z,2.70
2023-05-11T19:58:23.403Z,3.47
2023-05-11T20:00:50.251Z,2.30
2023-05-11T20:03:17.266Z,2.83
2023-05-11T20:05:44.316Z,2.50
2023-05-11T20:08:11.277Z,3.10
2023-05-11T20:10:38.777Z,3.03
2023-05-11T20:13:08.234Z,2.80
2023-05-11T20:15:35.558Z,3.00
2023-05-11T20:18:03.154Z,2.77
2023-05-11T20:20:33.368Z,3.00
2023-05-11T20:23:00.949Z,2.93
2023-05-11T20:25:27.798Z,3.20
2023-05-11T20:27:55.001Z,3.40
2023-05-11T20:30:22.284Z,4.17
2023-05-11T20:35:18.994Z,3.67
2023-05-11T20:37:45.967Z,4.00
2023-05-11T20:40:13.317Z,3.50
2023-05-11T20:42:40.611Z,4.40
2023-05-11T20:45:08.310Z,3.30
2023-05-11T20:47:35.246Z,4.30
2023-05-11T20:50:02.190Z,3.80
2023-05-11T20:52:29.016Z,3.50
2023-05-11T20:54:55.915Z,3.83
2023-05-11T20:57:22.821Z,3.47
2023-05-11T21:02:19.669Z,3.57
2023-05-11T21:04:49.612Z,4.00
2023-05-11T21:07:16.825Z,2.67
2023-05-11T21:09:44.557Z,3.63
2023-05-11T21:12:11.961Z,3.53
2023-05-11T21:14:39.309Z,4.73
2023-05-11T21:17:06.196Z,4.00
2023-05-11T21:19:32.975Z,3.47
2023-05-11T21:21:59.829Z,4.70
2023-05-11T21:24:26.530Z,3.77
2023-05-11T21:26:53.476Z,4.10
2023-05-11T21:29:20.440Z,3.97
2023-05-11T21:31:47.884Z,3.70
2023-05-11T21:34:17.342Z,3.60
2023-05-11T21:36:45.904Z,3.97
2023-05-11T21:39:15.662Z,4.03
2023-05-11T21:41:43.031Z,3.70
2023-05-11T21:44:10.176Z,4.50
2023-05-11T21:46:37.553Z,3.97
2023-05-11T21:49:04.862Z,3.90
2023-05-11T21:51:33.053Z,4.13
2023-05-11T21:54:00.200Z,3.80
2023-05-11T21:56:30.133Z,4.10
2023-05-11T21:58:57.286Z,4.00
2023-05-11T22:01:24.585Z,3.87
2023-05-11T22:03:51.539Z,3.93
2023-05-11T22:06:18.427Z,4.00
2023-05-11T22:08:45.605Z,3.57
2023-05-11T22:11:12.395Z,6.10
2023-05-11T22:13:39.193Z,3.93
2023-05-11T22:16:06.535Z,4.23
2023-05-11T22:18:33.506Z,4.30
2023-05-11T22:21:00.439Z,4.33
2023-05-11T22:23:27.566Z,5.60
2023-05-11T22:25:54.909Z,4.73
2023-05-11T22:28:21.635Z,5.37
2023-05-11T22:30:48.402Z,5.03
2023-05-11T22:33:15.344Z,4.57
2023-05-11T22:35:42.565Z,5.87
2023-05-11T22:38:09.705Z,4.80
2023-05-11T22:40:37.430Z,4.97
2023-05-11T22:43:04.423Z,4.93
2023-05-11T22:45:31.391Z,5.00
2023-05-11T22:47:58.403Z,5.63
2023-05-11T22:50:25.438Z,6.17
2023-05-11T22:52:52.499Z,6.87
2023-05-11T22:55:19.450Z,6.20
2023-05-11T22:57:46.664Z,6.57
2023-05-11T23:00:14.551Z,6.70
2023-05-11T23:02:41.682Z,6.57
2023-05-11T23:05:09.377Z,7.00
2023-05-11T23:07:36.193Z,6.97
2023-05-11T23:10:02.959Z,7.20
2023-05-11T23:12:29.728Z,8.00
2023-05-11T23:14:56.623Z,8.30
2023-05-11T23:17:23.553Z,7.83
2023-05-11T23:19:53.185Z,8.20
2023-05-11T23:22:22.979Z,7.10
2023-05-11T23:24:50.234Z,8.07
2023-05-11T23:27:17.619Z,7.00
2023-05-11T23:29:44.966Z,7.20
2023-05-11T23:32:12.167Z,7.80
2023-05-11T23:34:38.934Z,6.80
2023-05-11T23:37:06.506Z,6.50
2023-05-11T23:39:33.773Z,6.17
2023-05-11T23:42:01.106Z,6.27
2023-05-11T23:44:28.344Z,7.43
2023-05-11T23:46:55.073Z,6.40
2023-05-11T23:49:22.465Z,7.27
2023-05-11T23:51:49.395Z,6.83
2023-05-11T23:54:16.251Z,7.40
2023-05-11T23:56:44.406Z,6.90
2023-05-11T23:59:13.623Z,8.30
